Time;durP1;ratioP1;P1;durP2;ratioP2;P2;SDS_P1;SDS_P2;PMS_P1;PMS_P2;Temp;Humidity;BMP_temperature;BMP_pressure;BME280_temperature;BME280_humidity;BME280_pressure;Samples;Min_cycle;Max_cycle;Signal;HPM_P1;HPM_P2
2021/08/26 00:06:55;;;;;;;6.20;4.40;;;24.50;97.40;;;;;;4881826;29;20532;-81
2021/08/26 00:09:21;;;;;;;7.47;4.82;;;24.50;97.30;;;;;;4881613;29;20064;-81
2021/08/26 00:11:48;;;;;;;6.38;4.30;;;24.50;97.30;;;;;;4881500;29;20075;-82
2021/08/26 00:14:17;;;;;;;5.85;4.32;;;24.50;97.30;;;;;;4864630;29;20037;-82
2021/08/26 00:16:43;;;;;;;5.32;4.05;;;24.50;97.20;;;;;;4881633;29;20029;-82
2021/08/26 00:19:12;;;;;;;7.30;4.18;;;24.50;97.10;;;;;;4881355;29;20056;-82
2021/08/26 00:21:39;;;;;;;6.45;4.18;;;24.50;97.10;;;;;;4881475;29;20075;-82
2021/08/26 00:24:06;;;;;;;8.70;4.30;;;24.50;96.90;;;;;;4881009;29;20107;-82
2021/08/26 00:26:32;;;;;;;5.45;3.97;;;24.40;96.80;;;;;;4865011;29;20483;-82
2021/08/26 00:29:00;;;;;;;10.32;4.20;;;24.40;96.80;;;;;;4881223;29;20037;-83
2021/08/26 00:31:26;;;;;;;9.07;5.00;;;24.40;96.70;;;;;;4864695;29;20124;-82
2021/08/26 00:33:51;;;;;;;8.80;4.32;;;24.40;96.60;;;;;;4864344;29;20140;-82
2021/08/26 00:36:17;;;;;;;7.20;4.50;;;24.40;96.60;;;;;;4880687;29;20052;-82
2021/08/26 00:38:45;;;;;;;8.23;4.47;;;24.40;96.60;;;;;;4881348;29;20045;-82
2021/08/26 00:41:16;;;;;;;6.90;4.13;;;24.40;96.60;;;;;;4864303;29;20107;-82
2021/08/26 00:43:41;;;;;;;8.85;4.78;;;24.40;96.60;;;;;;4881168;29;20052;-82
2021/08/26 00:46:11;;;;;;;6.10;4.05;;;24.40;96.50;;;;;;4880368;29;20029;-82
2021/08/26 00:48:38;;;;;;;7.60;4.32;;;24.40;96.40;;;;;;4880680;29;20052;-82
2021/08/26 00:51:03;;;;;;;6.22;4.40;;;24.40;96.40;;;;;;4880367;29;20472;-82
2021/08/26 00:53:30;;;;;;;6.18;4.28;;;24.40;96.30;;;;;;4848990;29;20051;-82
2021/08/26 00:55:56;;;;;;;7.05;4.80;;;24.40;96.30;;;;;;4864144;29;20108;-82
2021/08/26 00:58:22;;;;;;;7.80;4.57;;;24.40;96.50;;;;;;4863955;29;20479;-82
2021/08/26 01:00:51;;;;;;;7.00;4.18;;;24.30;96.20;;;;;;4880757;29;20036;-82
2021/08/26 01:03:25;;;;;;;8.55;3.88;;;24.30;96.10;;;;;;4863843;29;20490;-82
2021/08/26 01:05:57;;;;;;;8.65;4.65;;;24.30;96.10;;;;;;4880789;29;20554;-82
2021/08/26 01:08:37;;;;;;;7.78;4.93;;;24.30;96.10;;;;;;4880253;29;20033;-82
2021/08/26 01:11:04;;;;;;;7.47;4.15;;;24.30;96.20;;;;;;4880072;29;20056;-83
2021/08/26 01:13:38;;;;;;;7.43;4.50;;;24.30;96.10;;;;;;4864143;29;20045;-82
2021/08/26 01:16:11;;;;;;;8.15;4.22;;;24.30;96.10;;;;;;4880077;29;20025;-82
2021/08/26 01:18:39;;;;;;;9.23;4.75;;;24.20;96.10;;;;;;4880220;29;20061;-81
2021/08/26 01:21:07;;;;;;;10.82;4.68;;;24.20;96.20;;;;;;4863583;29;20113;-81
2021/08/26 01:23:34;;;;;;;7.38;4.53;;;24.20;96.20;;;;;;4880463;29;20064;-81
2021/08/26 01:26:08;;;;;;;8.95;4.65;;;24.20;96.30;;;;;;4880365;29;20028;-81
2021/08/26 01:28:40;;;;;;;7.97;4.72;;;24.20;96.30;;;;;;4880306;29;20036;-81
2021/08/26 01:31:06;;;;;;;7.78;5.05;;;24.20;96.30;;;;;;4879635;29;20112;-81
2021/08/26 01:33:32;;;;;;;8.57;4.80;;;24.20;96.40;;;;;;4879873;29;20037;-81
2021/08/26 01:36:03;;;;;;;9.00;4.13;;;24.20;96.30;;;;;;4863498;29;20033;-81
2021/08/26 01:38:29;;;;;;;8.48;4.82;;;24.20;96.40;;;;;;4880093;29;20384;-81
2021/08/26 01:40:55;;;;;;;9.80;4.80;;;24.20;96.60;;;;;;4880120;29;20464;-80
2021/08/26 01:43:23;;;;;;;8.13;4.45;;;24.20;96.30;;;;;;4880154;29;20033;-81
2021/08/26 01:45:48;;;;;;;8.18;4.60;;;24.20;96.30;;;;;;4879766;29;20120;-81
2021/08/26 01:48:15;;;;;;;7.47;4.55;;;24.20;96.40;;;;;;4879810;29;20111;-80
2021/08/26 01:50:42;;;;;;;10.93;5.22;;;24.20;96.40;;;;;;4880007;29;20033;-81
2021/08/26 01:53:08;;;;;;;9.45;4.45;;;24.10;96.30;;;;;;4879427;29;20192;-81
2021/08/26 01:55:34;;;;;;;8.52;4.50;;;24.10;96.20;;;;;;4863154;29;20037;-81
2021/08/26 01:58:00;;;;;;;9.23;4.47;;;24.20;96.30;;;;;;4879260;29;20508;-81
2021/08/26 02:00:25;;;;;;;7.47;4.78;;;24.10;96.20;;;;;;4879479;29;20032;-80
2021/08/26 02:02:51;;;;;;;9.27;4.82;;;24.10;96.20;;;;;;4880147;29;20033;-81
2021/08/26 02:05:17;;;;;;;8.77;4.50;;;24.20;96.20;;;;;;4879496;29;20033;-80
2021/08/26 02:07:50;;;;;;;9.63;4.43;;;24.10;96.20;;;;;;4862973;29;20369;-81
2021/08/26 02:10:16;;;;;;;8.65;4.70;;;24.10;96.20;;;;;;4879302;29;20033;-81
2021/08/26 02:12:41;;;;;;;8.25;4.80;;;24.20;96.20;;;;;;4879632;29;20044;-80
2021/08/26 02:15:08;;;;;;;8.98;4.80;;;24.20;96.20;;;;;;4879628;29;20033;-80
2021/08/26 02:17:34;;;;;;;7.15;4.28;;;24.20;96.20;;;;;;4879365;29;20026;-81
2021/08/26 02:20:00;;;;;;;7.70;4.47;;;24.20;96.10;;;;;;4879633;29;20060;-81
2021/08/26 02:22:26;;;;;;;8.45;5.00;;;24.20;96.20;;;;;;4879034;29;20030;-81
2021/08/26 02:24:51;;;;;;;8.88;4.45;;;24.20;96.10;;;;;;4862801;29;20391;-81
2021/08/26 02:27:17;;;;;;;8.27;4.75;;;24.20;96.10;;;;;;4862438;29;20395;-81
2021/08/26 02:29:42;;;;;;;7.30;4.05;;;24.20;96.00;;;;;;4879246;29;20495;-81
2021/08/26 02:32:08;;;;;;;6.20;4.22;;;24.20;96.00;;;;;;4879537;29;20432;-81
2021/08/26 02:34:34;;;;;;;8.13;4.32;;;24.20;95.90;;;;;;4879203;29;20052;-81
2021/08/26 02:37:00;;;;;;;7.35;4.13;;;24.20;95.80;;;;;;4879430;29;20041;-81
2021/08/26 02:39:26;;;;;;;7.90;4.30;;;24.20;95.90;;;;;;4879046;29;20494;-81
2021/08/26 02:41:52;;;;;;;5.93;3.97;;;24.20;95.90;;;;;;4862680;29;20055;-79
2021/08/26 02:44:18;;;;;;;7.40;4.15;;;24.20;95.90;;;;;;4878883;29;20559;-80
2021/08/26 02:46:43;;;;;;;6.65;4.35;;;24.20;95.90;;;;;;4879134;29;20395;-81
2021/08/26 02:49:09;;;;;;;10.55;4.80;;;24.20;95.90;;;;;;4862763;29;20037;-81
2021/08/26 02:51:35;;;;;;;7.13;3.92;;;24.20;95.90;;;;;;4878790;29;20056;-80
2021/08/26 02:54:00;;;;;;;5.88;3.65;;;24.20;95.90;;;;;;4862532;29;20101;-80
2021/08/26 02:56:26;;;;;;;6.13;3.90;;;24.20;96.00;;;;;;4879276;29;20120;-81
2021/08/26 02:58:52;;;;;;;6.65;4.10;;;24.20;96.00;;;;;;4862559;29;20034;-81
2021/08/26 03:01:17;;;;;;;8.10;3.85;;;24.20;96.00;;;;;;4862321;29;20042;-81
2021/08/26 03:03:43;;;;;;;8.90;4.32;;;24.20;96.00;;;;;;4862573;29;20428;-80
2021/08/26 03:06:09;;;;;;;10.13;4.35;;;24.10;96.00;;;;;;4862487;29;20466;-80
2021/08/26 03:08:34;;;;;;;8.38;3.97;;;24.10;96.00;;;;;;4862543;29;20037;-80
2021/08/26 03:11:00;;;;;;;7.93;4.03;;;24.20;96.00;;;;;;4865935;29;20060;-80
2021/08/26 03:13:26;;;;;;;7.80;3.85;;;24.10;96.00;;;;;;4882491;29;20052;-81
2021/08/26 03:15:52;;;;;;;7.72;3.97;;;24.10;95.90;;;;;;4882674;29;20028;-80
2021/08/26 03:18:17;;;;;;;10.20;4.68;;;24.20;95.90;;;;;;4865271;29;20064;-81
2021/08/26 03:20:43;;;;;;;8.32;3.63;;;24.10;95.90;;;;;;4882365;29;20037;-80
2021/08/26 03:23:09;;;;;;;6.43;3.40;;;24.10;95.90;;;;;;4850401;29;20045;-80
2021/08/26 03:25:35;;;;;;;5.70;3.53;;;24.10;95.80;;;;;;4865617;29;20033;-80
2021/08/26 03:28:01;;;;;;;6.00;3.70;;;24.20;95.80;;;;;;4882246;29;20025;-81
2021/08/26 03:30:27;;;;;;;7.18;3.75;;;24.10;95.70;;;;;;4882146;29;20025;-81
2021/08/26 03:32:53;;;;;;;6.13;4.20;;;24.10;95.70;;;;;;4882377;29;20045;-81
2021/08/26 03:35:19;;;;;;;7.47;3.65;;;24.10;95.70;;;;;;4882045;29;20037;-81
2021/08/26 03:37:45;;;;;;;7.75;4.00;;;24.10;95.70;;;;;;4850231;29;20043;-80
2021/08/26 03:40:11;;;;;;;5.38;3.63;;;24.10;95.70;;;;;;4882212;29;20108;-80
2021/08/26 03:42:37;;;;;;;6.35;3.58;;;24.10;95.60;;;;;;4882213;29;20033;-80
2021/08/26 03:45:04;;;;;;;6.47;3.58;;;24.10;95.60;;;;;;4881866;29;20449;-80
2021/08/26 03:47:29;;;;;;;6.28;3.60;;;24.10;95.60;;;;;;4865550;29;20068;-81
2021/08/26 03:49:55;;;;;;;5.05;3.20;;;24.10;95.60;;;;;;4882128;29;20059;-80
2021/08/26 03:52:21;;;;;;;5.70;3.80;;;24.10;95.50;;;;;;4881562;29;20046;-81
2021/08/26 03:54:46;;;;;;;8.00;3.60;;;24.10;95.50;;;;;;4881652;29;20064;-81
2021/08/26 03:57:12;;;;;;;6.32;3.10;;;24.10;95.50;;;;;;4882065;29;20037;-80
2021/08/26 03:59:38;;;;;;;7.40;3.63;;;24.10;95.60;;;;;;4849799;29;20033;-81
2021/08/26 04:02:03;;;;;;;6.43;3.47;;;24.10;95.50;;;;;;4865105;29;20029;-81
2021/08/26 04:04:29;;;;;;;6.78;2.95;;;24.10;95.50;;;;;;4865062;29;20040;-81
2021/08/26 04:06:55;;;;;;;6.47;3.22;;;24.10;95.50;;;;;;4881874;29;20165;-80
2021/08/26 04:09:20;;;;;;;4.95;2.92;;;24.10;95.50;;;;;;4881767;29;20180;-80
2021/08/26 04:11:46;;;;;;;5.38;3.03;;;24.10;95.50;;;;;;4881986;29;20034;-81
2021/08/26 04:14:12;;;;;;;5.90;3.05;;;24.10;95.50;;;;;;4881674;29;20056;-81
2021/08/26 04:16:37;;;;;;;8.75;3.45;;;24.10;95.50;;;;;;4881387;29;20064;-81
2021/08/26 04:19:03;;;;;;;7.10;3.40;;;24.10;95.50;;;;;;4864379;29;20075;-81
2021/08/26 04:21:29;;;;;;;7.18;3.50;;;24.10;95.50;;;;;;4864066;29;20032;-81
2021/08/26 04:23:54;;;;;;;4.63;2.88;;;24.10;95.50;;;;;;4849404;29;20436;-79
2021/08/26 04:26:20;;;;;;;8.02;3.13;;;24.10;95.50;;;;;;4881473;29;20039;-80
2021/08/26 04:28:45;;;;;;;5.13;3.05;;;24.10;95.60;;;;;;4864645;29;20033;-80
2021/08/26 04:31:11;;;;;;;4.30;2.80;;;24.10;95.60;;;;;;4864527;29;20047;-80
2021/08/26 04:33:37;;;;;;;6.30;2.85;;;24.10;95.60;;;;;;4864340;29;20403;-80
2021/08/26 04:36:02;;;;;;;6.13;3.10;;;24.10;95.70;;;;;;4864448;29;20040;-80
2021/08/26 04:38:28;;;;;;;5.72;3.15;;;24.10;95.70;;;;;;4880960;29;20041;-80
2021/08/26 04:40:54;;;;;;;6.78;3.38;;;24.10;95.70;;;;;;4864332;29;20063;-80
2021/08/26 04:43:19;;;;;;;6.07;3.65;;;24.10;95.80;;;;;;4880847;29;20191;-81
2021/08/26 04:45:45;;;;;;;7.07;3.95;;;24.10;95.80;;;;;;4880932;29;20040;-81
2021/08/26 04:48:11;;;;;;;5.72;3.20;;;24.10;95.80;;;;;;4864553;29;20033;-81
2021/08/26 04:50:36;;;;;;;8.43;3.45;;;24.10;95.80;;;;;;4864084;29;20037;-81
2021/08/26 04:53:02;;;;;;;4.80;2.67;;;24.10;95.80;;;;;;4880594;29;20045;-80
2021/08/26 04:55:27;;;;;;;5.90;3.45;;;24.10;95.80;;;;;;4880685;29;20037;-81
2021/08/26 04:57:54;;;;;;;6.05;3.25;;;24.10;95.80;;;;;;4863957;29;20400;-82
2021/08/26 05:00:19;;;;;;;5.57;3.20;;;24.10;95.90;;;;;;4863911;29;20391;-82
2021/08/26 05:02:45;;;;;;;6.00;3.22;;;24.10;95.90;;;;;;4863702;29;20029;-81
2021/08/26 05:05:11;;;;;;;5.25;2.90;;;24.10;95.80;;;;;;4864136;29;20029;-82
2021/08/26 05:07:36;;;;;;;6.53;2.90;;;24.10;95.80;;;;;;4880299;29;20416;-82
2021/08/26 05:10:04;;;;;;;4.75;2.97;;;24.10;95.70;;;;;;4880476;29;20035;-82
2021/08/26 05:12:30;;;;;;;4.32;2.75;;;24.10;95.70;;;;;;4880381;29;20112;-83
2021/08/26 05:14:57;;;;;;;5.50;3.45;;;24.10;95.70;;;;;;4863898;29;20043;-82
2021/08/26 05:17:22;;;;;;;6.00;2.70;;;24.00;95.60;;;;;;4861783;29;20033;-82
2021/08/26 05:19:48;;;;;;;5.40;2.78;;;24.10;95.70;;;;;;4863149;29;20262;-82
2021/08/26 05:22:14;;;;;;;5.28;2.83;;;24.10;95.60;;;;;;4863622;29;20060;-82
2021/08/26 05:24:40;;;;;;;7.00;2.85;;;24.10;95.60;;;;;;4880216;29;20036;-82
2021/08/26 05:27:05;;;;;;;4.65;2.60;;;24.10;95.60;;;;;;4863646;29;20479;-81
2021/08/26 05:29:31;;;;;;;5.60;2.97;;;24.10;95.50;;;;;;4879796;29;20037;-82
2021/08/26 05:31:56;;;;;;;7.88;3.38;;;24.10;95.50;;;;;;4879940;29;20064;-81
2021/08/26 05:34:22;;;;;;;4.25;2.75;;;24.10;95.40;;;;;;4879720;29;20080;-81
2021/08/26 05:36:48;;;;;;;5.00;2.55;;;24.10;95.40;;;;;;4863162;29;20070;-81
2021/08/26 05:39:14;;;;;;;5.50;2.67;;;24.10;95.40;;;;;;4880109;29;20044;-82
2021/08/26 05:41:44;;;;;;;5.57;2.88;;;24.10;95.40;;;;;;4847959;29;20428;-82
2021/08/26 05:44:15;;;;;;;5.97;2.90;;;24.10;95.40;;;;;;4879813;29;20037;-82
2021/08/26 05:46:45;;;;;;;7.35;3.13;;;24.10;95.40;;;;;;4879980;29;20108;-82
2021/08/26 05:49:11;;;;;;;5.40;3.17;;;24.10;95.40;;;;;;4879760;29;20041;-83
2021/08/26 05:51:36;;;;;;;4.85;3.35;;;24.10;95.40;;;;;;4863145;29;20045;-82
2021/08/26 05:54:03;;;;;;;5.57;3.10;;;24.00;95.30;;;;;;4879590;29;20041;-82
2021/08/26 05:56:29;;;;;;;6.80;3.15;;;24.10;95.30;;;;;;4879648;29;20065;-82
2021/08/26 05:58:55;;;;;;;5.05;3.38;;;24.00;95.30;;;;;;4879448;29;20029;-82
2021/08/26 06:01:20;;;;;;;5.47;3.55;;;24.10;95.30;;;;;;4879484;29;20041;-81
2021/08/26 06:03:46;;;;;;;6.43;3.22;;;24.00;95.20;;;;;;4879635;29;20068;-81
2021/08/26 06:06:12;;;;;;;6.45;3.35;;;24.10;95.30;;;;;;4863184;29;20468;-80
2021/08/26 06:08:37;;;;;;;6.00;3.90;;;24.10;95.30;;;;;;4862502;29;20085;-82
2021/08/26 06:11:03;;;;;;;5.72;4.03;;;24.10;95.20;;;;;;4879302;29;20037;-80
2021/08/26 06:13:29;;;;;;;8.63;4.22;;;24.10;95.20;;;;;;4879105;29;20089;-81
2021/08/26 06:15:55;;;;;;;5.88;3.83;;;24.10;95.20;;;;;;4878896;29;20037;-81
2021/08/26 06:18:21;;;;;;;7.28;4.18;;;24.10;95.20;;;;;;4879283;29;20067;-80
2021/08/26 06:20:48;;;;;;;6.68;4.28;;;24.10;95.20;;;;;;4879388;29;20036;-80
2021/08/26 06:23:14;;;;;;;7.75;3.95;;;24.10;95.20;;;;;;4862934;29;20492;-80
2021/08/26 06:25:40;;;;;;;7.30;4.15;;;24.10;95.50;;;;;;4862896;29;20119;-81
2021/08/26 06:28:05;;;;;;;6.97;4.25;;;24.10;95.30;;;;;;4879567;29;20117;-82
2021/08/26 06:30:31;;;;;;;6.75;3.95;;;24.10;95.30;;;;;;4879468;29;20516;-82
2021/08/26 06:32:57;;;;;;;7.15;4.10;;;24.10;95.30;;;;;;4862646;29;20520;-81
2021/08/26 06:35:23;;;;;;;5.13;3.50;;;24.10;95.30;;;;;;4879505;29;20033;-79
2021/08/26 06:37:48;;;;;;;6.97;4.07;;;24.20;95.30;;;;;;4879249;29;20396;-81
2021/08/26 06:40:14;;;;;;;5.97;3.40;;;24.20;95.30;;;;;;4862771;29;20436;-81
2021/08/26 06:42:40;;;;;;;7.18;4.10;;;24.20;95.30;;;;;;4878298;29;20476;-81
2021/08/26 06:45:06;;;;;;;5.75;3.60;;;24.10;95.30;;;;;;4865362;29;20055;-81
2021/08/26 06:47:32;;;;;;;5.47;3.30;;;24.10;95.30;;;;;;4866491;29;20127;-81
2021/08/26 06:49:57;;;;;;;4.68;2.88;;;24.20;95.30;;;;;;4865973;29;20117;-80
2021/08/26 06:52:23;;;;;;;5.55;2.90;;;24.20;95.30;;;;;;4866484;29;20487;-80
2021/08/26 06:54:49;;;;;;;5.85;3.35;;;24.20;95.20;;;;;;4882834;29;20097;-80
2021/08/26 06:57:15;;;;;;;4.03;2.50;;;24.20;95.20;;;;;;4866065;29;20040;-80
2021/08/26 06:59:41;;;;;;;5.95;2.72;;;24.20;95.20;;;;;;4882507;29;20033;-81
2021/08/26 07:02:07;;;;;;;3.55;2.30;;;24.10;95.20;;;;;;4882645;29;20029;-80
2021/08/26 07:04:32;;;;;;;6.13;2.63;;;24.20;95.30;;;;;;4882824;29;20124;-80
2021/08/26 07:06:58;;;;;;;5.05;2.58;;;24.20;95.30;;;;;;4865910;29;20454;-80
2021/08/26 07:09:24;;;;;;;6.00;2.50;;;24.20;95.20;;;;;;4882469;29;20040;-80
2021/08/26 07:11:50;;;;;;;5.15;2.30;;;24.20;95.20;;;;;;4865895;29;20053;-80
2021/08/26 07:14:16;;;;;;;3.85;2.00;;;24.20;95.20;;;;;;4882557;29;20124;-80
2021/08/26 07:16:42;;;;;;;4.35;2.28;;;24.20;95.30;;;;;;4850429;29;20383;-82
2021/08/26 07:19:08;;;;;;;2.58;1.85;;;24.20;95.30;;;;;;4882394;29;20053;-80
2021/08/26 07:21:33;;;;;;;4.53;2.05;;;24.20;95.30;;;;;;4882341;29;20431;-81
2021/08/26 07:23:59;;;;;;;2.78;1.88;;;24.20;95.30;;;;;;4881955;29;20045;-81
2021/08/26 07:26:25;;;;;;;3.00;1.80;;;24.20;95.30;;;;;;4882446;29;20033;-81
2021/08/26 07:28:54;;;;;;;3.60;1.90;;;24.20;95.40;;;;;;4865717;29;20033;-80
2021/08/26 07:31:21;;;;;;;4.13;2.10;;;24.20;95.40;;;;;;4882064;29;20407;-80
2021/08/26 07:33:46;;;;;;;4.07;2.40;;;24.20;95.40;;;;;;4865514;29;20041;-81
2021/08/26 07:36:12;;;;;;;3.42;2.05;;;24.20;95.50;;;;;;4882003;29;20488;-80
2021/08/26 07:38:37;;;;;;;3.60;2.10;;;24.20;95.40;;;;;;4881942;29;20033;-81
2021/08/26 07:41:03;;;;;;;3.05;1.73;;;24.20;95.40;;;;;;4865123;29;20033;-80
2021/08/26 07:43:31;;;;;;;3.65;1.98;;;24.20;95.40;;;;;;4850031;29;20044;-80
2021/08/26 07:45:57;;;;;;;4.75;2.15;;;24.20;95.30;;;;;;4881754;29;20041;-81
2021/08/26 07:48:23;;;;;;;2.60;1.73;;;24.20;95.30;;;;;;4881864;29;20119;-81
2021/08/26 07:50:49;;;;;;;5.55;2.17;;;24.20;95.30;;;;;;4881686;29;20512;-81
2021/08/26 07:53:15;;;;;;;3.70;2.10;;;24.20;95.20;;;;;;4881845;29;20037;-81
2021/08/26 07:55:41;;;;;;;5.85;2.90;;;24.20;95.20;;;;;;4864292;29;20165;-81
2021/08/26 07:58:07;;;;;;;3.47;2.00;;;24.20;95.20;;;;;;4864980;29;20120;-81
2021/08/26 08:00:33;;;;;;;3.90;2.00;;;24.20;95.10;;;;;;4881785;29;20504;-81
2021/08/26 08:02:58;;;;;;;3.58;1.70;;;24.20;95.00;;;;;;4881613;29;20037;-80
2021/08/26 08:05:24;;;;;;;3.70;1.77;;;24.20;95.00;;;;;;4865184;29;20464;-82
2021/08/26 08:07:49;;;;;;;5.18;2.05;;;24.20;95.00;;;;;;4848387;29;20033;-82
2021/08/26 08:10:16;;;;;;;4.72;1.92;;;24.20;95.00;;;;;;4865087;29;20387;-82
2021/08/26 08:12:42;;;;;;;3.70;1.88;;;24.20;95.00;;;;;;4865115;29;20033;-82
2021/08/26 08:15:09;;;;;;;5.05;2.03;;;24.20;95.00;;;;;;4881368;29;20056;-82
2021/08/26 08:17:36;;;;;;;3.78;1.90;;;24.20;95.00;;;;;;4881471;29;20077;-82
2021/08/26 08:20:03;;;;;;;3.05;1.83;;;24.20;95.00;;;;;;4881306;29;20556;-82
2021/08/26 08:22:29;;;;;;;4.43;1.73;;;24.20;95.00;;;;;;4881496;29;20041;-81
2021/08/26 08:24:55;;;;;;;4.03;1.90;;;24.20;95.10;;;;;;4864508;29;20047;-82
2021/08/26 08:27:21;;;;;;;4.18;1.98;;;24.20;95.20;;;;;;4881532;29;20125;-81
2021/08/26 08:29:47;;;;;;;3.40;1.88;;;24.20;95.30;;;;;;4881232;29;20029;-81
2021/08/26 08:32:13;;;;;;;3.60;2.05;;;24.20;95.40;;;;;;4880939;29;20025;-81
2021/08/26 08:34:38;;;;;;;3.80;2.30;;;24.10;95.40;;;;;;4864255;29;20049;-81
2021/08/26 08:37:04;;;;;;;4.72;2.30;;;24.10;95.50;;;;;;4881239;29;20099;-82
2021/08/26 08:39:30;;;;;;;2.85;1.80;;;24.10;95.50;;;;;;4880903;29;20040;-80
2021/08/26 08:41:56;;;;;;;2.90;1.63;;;24.10;95.50;;;;;;4880732;29;20492;-82
2021/08/26 08:44:21;;;;;;;4.72;2.05;;;24.10;95.50;;;;;;4864240;29;20494;-81
2021/08/26 08:46:49;;;;;;;3.42;2.00;;;24.10;95.50;;;;;;4864366;29;20123;-81
2021/08/26 08:49:22;;;;;;;3.22;1.92;;;24.10;95.60;;;;;;4881109;29;20035;-81
2021/08/26 08:51:52;;;;;;;5.50;2.50;;;24.10;95.60;;;;;;4880909;29;20066;-81
2021/08/26 08:54:19;;;;;;;5.43;2.70;;;24.10;95.60;;;;;;4863891;29;20479;-80
2021/08/26 08:56:45;;;;;;;4.43;2.50;;;24.10;95.60;;;;;;4880401;29;20033;-80
2021/08/26 08:59:11;;;;;;;6.30;2.47;;;24.10;95.60;;;;;;4864040;29;20165;-80
2021/08/26 09:01:36;;;;;;;6.18;2.72;;;24.20;95.60;;;;;;4864177;29;20112;-81
2021/08/26 09:04:03;;;;;;;8.40;3.25;;;24.20;95.60;;;;;;4880349;29;20043;-81
2021/08/26 09:06:40;;;;;;;7.00;2.85;;;24.20;95.60;;;;;;4880177;29;20538;-81
2021/08/26 09:09:07;;;;;;;5.57;2.50;;;24.20;95.60;;;;;;4879252;29;20560;-81
2021/08/26 09:11:33;;;;;;;6.82;2.88;;;24.20;95.60;;;;;;4863947;29;20033;-81
2021/08/26 09:14:11;;;;;;;4.75;2.72;;;24.20;95.60;;;;;;4880006;29;20036;-82
2021/08/26 09:16:41;;;;;;;6.30;2.65;;;24.20;95.60;;;;;;4880220;29;20037;-81
2021/08/26 09:19:31;;;;;;;5.68;3.00;;;24.20;95.60;;;;;;4863443;29;20057;-81
2021/08/26 09:22:03;;;;;;;5.90;3.05;;;24.20;95.50;;;;;;4879873;29;20060;-81
2021/08/26 09:24:51;;;;;;;5.93;3.40;;;24.30;95.50;;;;;;4880453;29;20041;-81
2021/08/26 09:27:35;;;;;;;7.90;3.28;;;24.30;95.50;;;;;;4863618;29;20033;-82
2021/08/26 09:30:08;;;;;;;6.40;3.03;;;24.30;95.50;;;;;;4880021;29;20029;-82
2021/08/26 09:32:40;;;;;;;7.20;2.80;;;24.30;95.50;;;;;;4863295;29;20025;-81
2021/08/26 09:35:22;;;;;;;6.70;2.95;;;24.30;95.40;;;;;;4863084;29;20041;-82
2021/08/26 09:37:59;;;;;;;6.45;3.40;;;24.30;95.40;;;;;;4880266;29;20475;-81
2021/08/26 09:40:40;;;;;;;7.60;2.88;;;24.30;95.40;;;;;;4880158;29;20119;-82
2021/08/26 09:43:08;;;;;;;10.32;3.45;;;24.30;95.40;;;;;;4863259;29;20455;-82
2021/08/26 09:45:36;;;;;;;6.63;3.33;;;24.30;95.40;;;;;;4848096;29;20084;-82
2021/08/26 09:48:13;;;;;;;7.82;3.30;;;24.20;95.40;;;;;;4863130;29;20034;-82
2021/08/26 09:50:40;;;;;;;7.22;3.88;;;24.20;95.60;;;;;;4879889;29;20033;-83
2021/08/26 09:53:07;;;;;;;6.72;3.35;;;24.10;95.70;;;;;;4878673;29;20041;-82
2021/08/26 09:55:56;;;;;;;5.45;3.15;;;24.00;95.80;;;;;;4863231;29;20024;-81
2021/08/26 09:58:25;;;;;;;8.75;3.45;;;23.90;95.90;;;;;;4862878;29;20036;-82
2021/08/26 10:01:05;;;;;;;4.80;3.20;;;23.90;96.00;;;;;;4879415;29;20081;-81
2021/08/26 10:03:32;;;;;;;7.72;3.28;;;23.80;96.10;;;;;;4863321;29;20044;-81
2021/08/26 10:05:58;;;;;;;7.07;3.78;;;23.80;96.20;;;;;;4879451;29;20032;-80
2021/08/26 10:08:25;;;;;;;6.80;3.65;;;23.80;96.20;;;;;;4862994;29;20033;-80
2021/08/26 10:10:53;;;;;;;6.10;3.40;;;23.80;96.40;;;;;;4863229;29;20033;-80
2021/08/26 10:13:19;;;;;;;8.75;3.53;;;23.80;96.50;;;;;;4862671;29;20057;-80
2021/08/26 10:15:46;;;;;;;6.88;3.45;;;23.80;96.60;;;;;;4879619;29;20040;-81
2021/08/26 10:18:16;;;;;;;6.55;3.75;;;23.80;96.70;;;;;;4862117;29;20029;-82
2021/08/26 10:20:42;;;;;;;7.32;3.53;;;23.80;96.80;;;;;;4862586;29;20063;-82
2021/08/26 10:23:10;;;;;;;6.07;3.90;;;23.80;96.90;;;;;;4878969;29;20120;-82
2021/08/26 10:25:40;;;;;;;6.65;3.85;;;23.80;96.90;;;;;;4877471;29;20033;-82
2021/08/26 10:28:07;;;;;;;6.07;3.50;;;23.90;97.00;;;;;;4862591;29;20448;-84
2021/08/26 10:30:36;;;;;;;7.50;4.00;;;23.80;97.10;;;;;;4847319;29;20055;-83
2021/08/26 10:33:11;;;;;;;9.15;4.82;;;23.80;96.90;;;;;;4879455;29;20029;-82
2021/08/26 10:35:52;;;;;;;7.60;3.90;;;23.80;96.90;;;;;;4878203;29;20033;-83
2021/08/26 10:38:27;;;;;;;6.88;3.38;;;23.80;96.80;;;;;;4878243;29;20108;-82
2021/08/26 10:40:53;;;;;;;7.68;3.70;;;23.80;96.80;;;;;;4878967;29;20029;-82
2021/08/26 10:43:38;;;;;;;6.53;3.58;;;23.80;96.80;;;;;;4878940;29;20073;-81
2021/08/26 10:46:09;;;;;;;7.28;3.67;;;23.80;96.80;;;;;;4862152;29;20026;-81
2021/08/26 10:48:36;;;;;;;7.45;3.00;;;23.80;96.80;;;;;;4879381;29;20118;-82
2021/08/26 10:51:12;;;;;;;6.70;3.53;;;23.80;96.80;;;;;;4879182;29;20484;-81
2021/08/26 10:53:40;;;;;;;6.13;3.15;;;23.80;96.70;;;;;;4879119;29;20033;-81
2021/08/26 10:56:23;;;;;;;7.88;3.67;;;23.80;96.70;;;;;;4879249;29;20089;-81
2021/08/26 10:58:50;;;;;;;7.32;3.55;;;23.70;96.70;;;;;;4879148;29;20472;-81
2021/08/26 11:01:28;;;;;;;5.72;3.05;;;23.70;96.70;;;;;;4862024;29;20495;-81
2021/08/26 11:04:01;;;;;;;6.70;3.53;;;23.80;96.70;;;;;;4879105;29;20051;-81
2021/08/26 11:06:29;;;;;;;6.68;3.00;;;23.70;96.70;;;;;;4878756;29;20577;-81
2021/08/26 11:09:16;;;;;;;6.32;3.42;;;23.80;96.70;;;;;;4878714;29;20101;-81
2021/08/26 11:11:46;;;;;;;6.68;2.90;;;23.80;96.80;;;;;;4861439;29;20116;-81
2021/08/26 11:14:23;;;;;;;7.38;3.63;;;23.80;97.10;;;;;;4878718;29;20166;-82
2021/08/26 11:16:54;;;;;;;6.00;3.22;;;23.80;96.90;;;;;;4862525;29;21092;-81
2021/08/26 11:19:19;;;;;;;5.45;2.97;;;23.80;96.90;;;;;;4878854;29;20057;-80
2021/08/26 11:21:45;;;;;;;7.07;2.85;;;23.80;96.90;;;;;;4878689;29;20383;-81
2021/08/26 11:24:14;;;;;;;5.03;3.20;;;23.80;96.90;;;;;;4879073;29;20033;-81
2021/08/26 11:26:48;;;;;;;6.97;3.35;;;23.80;96.90;;;;;;4878986;29;20396;-82
2021/08/26 11:29:23;;;;;;;7.07;3.45;;;23.80;96.90;;;;;;4878892;29;20104;-82
2021/08/26 11:31:54;;;;;;;9.32;4.00;;;23.80;97.00;;;;;;4864241;29;20504;-82
2021/08/26 11:34:36;;;;;;;6.57;3.30;;;23.90;97.00;;;;;;4865251;29;20041;-82
2021/08/26 11:37:20;;;;;;;7.45;3.35;;;23.90;97.00;;;;;;4882013;29;20387;-81
2021/08/26 11:40:05;;;;;;;6.75;3.60;;;23.90;97.00;;;;;;4865695;29;20112;-82
2021/08/26 11:42:30;;;;;;;7.47;3.88;;;23.90;97.00;;;;;;4882111;29;20033;-82
2021/08/26 11:45:17;;;;;;;6.05;3.50;;;23.90;96.90;;;;;;4882200;29;20033;-82
2021/08/26 11:47:55;;;;;;;8.82;3.58;;;23.90;96.90;;;;;;4882052;29;20029;-82
2021/08/26 11:50:28;;;;;;;7.22;3.60;;;23.90;96.90;;;;;;4881432;29;20068;-83
2021/08/26 11:52:56;;;;;;;5.90;3.20;;;23.90;96.80;;;;;;4881931;29;20028;-82
2021/08/26 11:55:24;;;;;;;5.85;2.75;;;23.90;96.70;;;;;;4881687;29;20539;-82
2021/08/26 11:58:02;;;;;;;7.75;3.42;;;23.90;96.60;;;;;;4881875;29;20111;-81
2021/08/26 12:00:28;;;;;;;6.18;3.60;;;23.90;96.60;;;;;;4881490;29;20119;-82
2021/08/26 12:03:00;;;;;;;6.63;3.15;;;23.90;96.60;;;;;;4881838;29;20119;-81
2021/08/26 12:05:27;;;;;;;7.35;3.00;;;23.90;96.60;;;;;;4881231;29;20057;-82
2021/08/26 12:07:54;;;;;;;5.40;2.70;;;24.00;96.60;;;;;;4881536;29;20025;-81
2021/08/26 12:10:23;;;;;;;7.22;3.72;;;23.90;96.60;;;;;;4864681;29;20059;-82
2021/08/26 12:12:54;;;;;;;5.55;2.90;;;23.90;96.70;;;;;;4881331;29;20025;-82
2021/08/26 12:15:35;;;;;;;6.47;3.13;;;24.00;96.80;;;;;;4881418;29;20037;-85
2021/08/26 12:18:04;;;;;;;5.65;3.00;;;24.00;96.80;;;;;;4864885;29;20495;-84
2021/08/26 12:20:36;;;;;;;6.65;3.33;;;24.00;96.90;;;;;;4881006;29;20182;-85
2021/08/26 12:23:02;;;;;;;8.68;3.67;;;24.00;96.90;;;;;;4881687;29;20025;-84
2021/08/26 12:25:39;;;;;;;6.07;3.20;;;24.00;97.20;;;;;;4848791;29;20128;-83
2021/08/26 12:28:08;;;;;;;4.82;3.03;;;24.00;97.10;;;;;;4881505;29;20032;-83
2021/08/26 12:30:43;;;;;;;9.05;3.92;;;24.00;97.10;;;;;;4881192;29;20029;-83
2021/08/26 12:33:13;;;;;;;6.22;3.25;;;24.00;97.10;;;;;;4864490;29;20221;-84
2021/08/26 12:35:48;;;;;;;5.50;3.17;;;24.00;97.00;;;;;;4881050;29;20280;-84
2021/08/26 12:38:31;;;;;;;6.35;3.15;;;24.00;96.90;;;;;;4881036;29;20377;-83
2021/08/26 12:40:58;;;;;;;6.45;3.72;;;24.00;96.90;;;;;;4881239;29;20591;-84
2021/08/26 12:43:37;;;;;;;5.63;3.08;;;24.00;96.80;;;;;;4880440;29;20037;-84
2021/08/26 12:46:09;;;;;;;7.50;3.17;;;24.00;96.80;;;;;;4881039;29;20033;-83
2021/08/26 12:48:37;;;;;;;6.00;2.92;;;24.00;96.80;;;;;;4880887;29;20041;-83
2021/08/26 12:51:24;;;;;;;7.05;3.40;;;24.00;96.80;;;;;;4864203;29;20029;-83
2021/08/26 12:54:04;;;;;;;5.85;2.88;;;24.00;96.90;;;;;;4881027;29;20049;-83
2021/08/26 12:56:48;;;;;;;5.30;3.20;;;24.00;96.90;;;;;;4880644;29;20033;-83